sensor_id;sensor_type;location;lat;lon;timestamp;pressure;altitude;pressure_sealevel;temperature;humidity
66762;BME280;53672;48.176;16.338;2023-04-03T00:04:41;99518.88;;;4.95;68.83
66762;BME280;53672;48.176;16.338;2023-04-03T00:09:42;99525.94;;;5.01;69.04
66762;BME280;53672;48.176;16.338;2023-04-03T00:14:44;99525.47;;;5.04;68.55
66762;BME280;53672;48.176;16.338;2023-04-03T00:19:44;99531.28;;;5.01;68.92
66762;BME280;53672;48.176;16.338;2023-04-03T00:24:45;99525.94;;;5.01;68.39
66762;BME280;53672;48.176;16.338;2023-04-03T00:29:47;99526.63;;;5.08;68.16
66762;BME280;53672;48.176;16.338;2023-04-03T00:34:48;99536.63;;;5.01;68.63
66762;BME280;53672;48.176;16.338;2023-04-03T00:39:48;99530.84;;;4.93;69.88
66762;BME280;53672;48.176;16.338;2023-04-03T00:45:26;99529.44;;;5.02;68.58
66762;BME280;53672;48.176;16.338;2023-04-03T00:50:28;99520.50;;;4.85;71.77
66762;BME280;53672;48.176;16.338;2023-04-03T00:55:29;99520.50;;;4.96;69.64
66762;BME280;53672;48.176;16.338;2023-04-03T01:00:31;99519.34;;;4.92;69.81
66762;BME280;53672;48.176;16.338;2023-04-03T01:05:32;99524.22;;;4.84;72.64
66762;BME280;53672;48.176;16.338;2023-04-03T01:10:34;99524.47;;;4.82;71.14
66762;BME280;53672;48.176;16.338;2023-04-03T01:15:36;99520.59;;;4.90;70.32
66762;BME280;53672;48.176;16.338;2023-04-03T01:21:07;99544.78;;;4.83;70.97
66762;BME280;53672;48.176;16.338;2023-04-03T01:26:11;99544.53;;;4.73;73.51
66762;BME280;53672;48.176;16.338;2023-04-03T01:31:19;99536.53;;;4.73;73.30
66762;BME280;53672;48.176;16.338;2023-04-03T01:36:26;99530.28;;;4.79;71.76
66762;BME280;53672;48.176;16.338;2023-04-03T01:41:27;99531.31;;;4.78;71.42
66762;BME280;53672;48.176;16.338;2023-04-03T01:46:27;99533.75;;;4.80;71.91
66762;BME280;53672;48.176;16.338;2023-04-03T01:51:29;99533.03;;;4.73;73.18
66762;BME280;53672;48.176;16.338;2023-04-03T01:56:30;99520.63;;;4.78;73.12
66762;BME280;53672;48.176;16.338;2023-04-03T02:01:31;99529.69;;;4.77;71.99
66762;BME280;53672;48.176;16.338;2023-04-03T02:06:33;99538.16;;;4.74;72.84
66762;BME280;53672;48.176;16.338;2023-04-03T02:11:33;99541.53;;;4.70;71.82
66762;BME280;53672;48.176;16.338;2023-04-03T02:16:34;99534.31;;;4.70;73.25
66762;BME280;53672;48.176;16.338;2023-04-03T02:21:35;99545.59;;;4.60;74.86
66762;BME280;53672;48.176;16.338;2023-04-03T02:26:36;99549.63;;;4.63;72.68
66762;BME280;53672;48.176;16.338;2023-04-03T02:31:36;99539.44;;;4.60;74.46
66762;BME280;53672;48.176;16.338;2023-04-03T02:36:38;99554.09;;;4.69;72.91
66762;BME280;53672;48.176;16.338;2023-04-03T02:41:39;99545.13;;;4.64;74.11
66762;BME280;53672;48.176;16.338;2023-04-03T02:46:39;99555.69;;;4.58;74.27
66762;BME280;53672;48.176;16.338;2023-04-03T02:51:41;99556.03;;;4.62;74.14
66762;BME280;53672;48.176;16.338;2023-04-03T02:56:42;99551.59;;;4.56;74.69
66762;BME280;53672;48.176;16.338;2023-04-03T03:01:42;99559.97;;;4.59;73.36
66762;BME280;53672;48.176;16.338;2023-04-03T03:06:44;99566.94;;;4.60;73.77
66762;BME280;53672;48.176;16.338;2023-04-03T03:11:44;99565.88;;;4.50;75.52
66762;BME280;53672;48.176;16.338;2023-04-03T03:16:45;99565.31;;;4.59;73.34
66762;BME280;53672;48.176;16.338;2023-04-03T03:21:47;99558.78;;;4.55;73.82
66762;BME280;53672;48.176;16.338;2023-04-03T03:26:47;99561.47;;;4.55;72.36
66762;BME280;53672;48.176;16.338;2023-04-03T03:31:48;99567.06;;;4.54;72.28
66762;BME280;53672;48.176;16.338;2023-04-03T03:36:50;99566.81;;;4.55;72.01
66762;BME280;53672;48.176;16.338;2023-04-03T03:41:50;99572.13;;;4.55;72.60
66762;BME280;53672;48.176;16.338;2023-04-03T03:46:51;99576.56;;;4.50;73.22
66762;BME280;53672;48.176;16.338;2023-04-03T03:51:53;99570.97;;;4.40;74.47
66762;BME280;53672;48.176;16.338;2023-04-03T03:56:53;99570.50;;;4.43;73.29
66762;BME280;53672;48.176;16.338;2023-04-03T04:01:54;99570.41;;;4.38;74.16
66762;BME280;53672;48.176;16.338;2023-04-03T04:06:55;99573.31;;;4.48;71.99
66762;BME280;53672;48.176;16.338;2023-04-03T04:11:56;99584.31;;;4.40;73.17
66762;BME280;53672;48.176;16.338;2023-04-03T04:16:56;99572.00;;;4.39;73.43
66762;BME280;53672;48.176;16.338;2023-04-03T04:21:58;99579.28;;;4.32;75.29
66762;BME280;53672;48.176;16.338;2023-04-03T04:26:59;99575.59;;;4.33;73.38
66762;BME280;53672;48.176;16.338;2023-04-03T04:31:59;99586.28;;;4.33;72.45
66762;BME280;53672;48.176;16.338;2023-04-03T04:37:01;99596.22;;;4.26;74.31
66762;BME280;53672;48.176;16.338;2023-04-03T04:42:02;99592.63;;;4.32;73.35
66762;BME280;53672;48.176;16.338;2023-04-03T04:47:02;99598.22;;;4.30;72.77
66762;BME280;53672;48.176;16.338;2023-04-03T04:52:04;99606.22;;;4.30;73.20
66762;BME280;53672;48.176;16.338;2023-04-03T04:57:05;99603.78;;;4.29;73.10
66762;BME280;53672;48.176;16.338;2023-04-03T05:02:05;99606.69;;;4.27;72.89
66762;BME280;53672;48.176;16.338;2023-04-03T05:07:07;99609.81;;;4.24;74.45
66762;BME280;53672;48.176;16.338;2023-04-03T05:12:08;99619.41;;;4.25;74.23
66762;BME280;53672;48.176;16.338;2023-04-03T05:17:08;99619.78;;;4.29;72.22
66762;BME280;53672;48.176;16.338;2023-04-03T05:22:10;99619.91;;;4.34;71.92
66762;BME280;53672;48.176;16.338;2023-04-03T05:27:10;99633.84;;;4.36;71.88
66762;BME280;53672;48.176;16.338;2023-04-03T05:32:11;99632.00;;;4.36;72.21
66762;BME280;53672;48.176;16.338;2023-04-03T05:37:13;99622.59;;;4.45;72.04
66762;BME280;53672;48.176;16.338;2023-04-03T05:42:13;99618.31;;;4.44;72.37
66762;BME280;53672;48.176;16.338;2023-04-03T05:47:14;99634.50;;;4.61;69.23
66762;BME280;53672;48.176;16.338;2023-04-03T05:52:20;99636.66;;;4.41;70.97
66762;BME280;53672;48.176;16.338;2023-04-03T05:57:21;99639.34;;;4.52;69.69
66762;BME280;53672;48.176;16.338;2023-04-03T06:02:24;99646.19;;;4.60;69.43
66762;BME280;53672;48.176;16.338;2023-04-03T06:07:26;99644.84;;;4.69;70.34
66762;BME280;53672;48.176;16.338;2023-04-03T06:12:27;99649.25;;;4.75;69.31
66762;BME280;53672;48.176;16.338;2023-04-03T06:17:27;99650.28;;;4.74;69.92
66762;BME280;53672;48.176;16.338;2023-04-03T06:22:29;99645.09;;;4.91;68.25
66762;BME280;53672;48.176;16.338;2023-04-03T06:27:30;99657.75;;;4.95;67.02
66762;BME280;53672;48.176;16.338;2023-04-03T06:32:30;99662.63;;;4.87;68.74
66762;BME280;53672;48.176;16.338;2023-04-03T06:37:32;99669.00;;;4.97;69.23
66762;BME280;53672;48.176;16.338;2023-04-03T06:42:33;99673.91;;;5.00;67.49
66762;BME280;53672;48.176;16.338;2023-04-03T06:47:33;99680.06;;;4.89;66.91
66762;BME280;53672;48.176;16.338;2023-04-03T06:52:35;99681.81;;;4.95;65.83
66762;BME280;53672;48.176;16.338;2023-04-03T06:57:36;99687.94;;;4.84;66.52
66762;BME280;53672;48.176;16.338;2023-04-03T07:02:37;99692.38;;;5.02;68.29
66762;BME280;53672;48.176;16.338;2023-04-03T07:07:39;99701.06;;;4.97;65.48
66762;BME280;53672;48.176;16.338;2023-04-03T07:12:39;99711.28;;;5.00;63.14
66762;BME280;53672;48.176;16.338;2023-04-03T07:17:40;99712.94;;;5.01;63.99
66762;BME280;53672;48.176;16.338;2023-04-03T07:22:42;99714.91;;;5.06;62.96
66762;BME280;53672;48.176;16.338;2023-04-03T07:27:42;99719.59;;;5.34;61.31
66762;BME280;53672;48.176;16.338;2023-04-03T07:32:43;99703.91;;;5.37;60.35
66762;BME280;53672;48.176;16.338;2023-04-03T07:37:45;99707.50;;;5.43;58.31
66762;BME280;53672;48.176;16.338;2023-04-03T07:42:45;99716.88;;;6.03;58.33
66762;BME280;53672;48.176;16.338;2023-04-03T07:47:46;99717.41;;;7.02;57.07
66762;BME280;53672;48.176;16.338;2023-04-03T07:52:48;99715.56;;;7.96;54.77
66762;BME280;53672;48.176;16.338;2023-04-03T07:57:49;99724.13;;;8.58;51.38
66762;BME280;53672;48.176;16.338;2023-04-03T08:02:49;99723.28;;;8.31;50.46
66762;BME280;53672;48.176;16.338;2023-04-03T08:07:51;99727.00;;;9.37;49.44
66762;BME280;53672;48.176;16.338;2023-04-03T08:12:51;99718.13;;;9.04;47.95
66762;BME280;53672;48.176;16.338;2023-04-03T08:17:52;99710.56;;;9.33;47.67
66762;BME280;53672;48.176;16.338;2023-04-03T08:22:54;99734.53;;;9.77;43.98
66762;BME280;53672;48.176;16.338;2023-04-03T08:27:55;99730.84;;;10.40;43.77
66762;BME280;53672;48.176;16.338;2023-04-03T08:32:55;99730.44;;;11.03;38.72
66762;BME280;53672;48.176;16.338;2023-04-03T08:37:57;99734.31;;;12.37;40.20
66762;BME280;53672;48.176;16.338;2023-04-03T08:43:06;99730.09;;;15.73;31.91
66762;BME280;53672;48.176;16.338;2023-04-03T08:48:14;99725.84;;;17.79;28.16
66762;BME280;53672;48.176;16.338;2023-04-03T08:53:19;99714.25;;;13.89;31.28
66762;BME280;53672;48.176;16.338;2023-04-03T08:58:22;99722.94;;;15.64;30.47
66762;BME280;53672;48.176;16.338;2023-04-03T09:03:24;99727.19;;;18.38;25.20
66762;BME280;53672;48.176;16.338;2023-04-03T09:08:28;99720.47;;;14.98;30.55
66762;BME280;53672;48.176;16.338;2023-04-03T09:13:33;99736.63;;;13.08;32.68
66762;BME280;53672;48.176;16.338;2023-04-03T09:18:39;99724.13;;;14.51;30.20
66762;BME280;53672;48.176;16.338;2023-04-03T09:23:46;99738.47;;;16.45;28.53
66762;BME280;53672;48.176;16.338;2023-04-03T09:28:50;99727.47;;;13.95;32.54
66762;BME280;53672;48.176;16.338;2023-04-03T09:33:54;99747.34;;;12.79;32.97
66762;BME280;53672;48.176;16.338;2023-04-03T09:39:04;99757.69;;;11.98;35.16
66762;BME280;53672;48.176;16.338;2023-04-03T09:44:20;99735.63;;;18.11;24.93
66762;BME280;53672;48.176;16.338;2023-04-03T09:49:21;99748.22;;;16.87;24.93
66762;BME280;53672;48.176;16.338;2023-04-03T09:54:37;99749.31;;;17.44;27.44
66762;BME280;53672;48.176;16.338;2023-04-03T09:59:44;99761.41;;;14.40;32.04
66762;BME280;53672;48.176;16.338;2023-04-03T10:04:44;99757.09;;;12.80;33.00
66762;BME280;53672;48.176;16.338;2023-04-03T10:09:54;99754.00;;;10.31;39.16
66762;BME280;53672;48.176;16.338;2023-04-03T10:14:56;99763.84;;;9.04;37.99
66762;BME280;53672;48.176;16.338;2023-04-03T10:20:03;99762.06;;;8.61;42.93
66762;BME280;53672;48.176;16.338;2023-04-03T10:25:14;99784.31;;;8.35;40.42
66762;BME280;53672;48.176;16.338;2023-04-03T10:30:32;99777.50;;;7.89;40.12
66762;BME280;53672;48.176;16.338;2023-04-03T10:35:42;99772.34;;;7.88;41.13
66762;BME280;53672;48.176;16.338;2023-04-03T10:40:52;99766.25;;;7.92;41.63
66762;BME280;53672;48.176;16.338;2023-04-03T10:46:00;99771.06;;;8.72;40.91
66762;BME280;53672;48.176;16.338;2023-04-03T10:51:12;99768.09;;;8.08;42.21
66762;BME280;53672;48.176;16.338;2023-04-03T10:56:19;99763.97;;;8.23;40.90
66762;BME280;53672;48.176;16.338;2023-04-03T11:01:26;99769.88;;;8.41;40.05
66762;BME280;53672;48.176;16.338;2023-04-03T11:06:33;99758.88;;;8.21;39.39
66762;BME280;53672;48.176;16.338;2023-04-03T11:11:38;99768.53;;;8.00;40.32
66762;BME280;53672;48.176;16.338;2023-04-03T11:16:43;99784.19;;;7.70;41.59
66762;BME280;53672;48.176;16.338;2023-04-03T11:21:51;99771.66;;;7.76;39.31
66762;BME280;53672;48.176;16.338;2023-04-03T11:26:56;99768.34;;;7.52;40.82
66762;BME280;53672;48.176;16.338;2023-04-03T11:32:15;99765.72;;;7.40;38.69
66762;BME280;53672;48.176;16.338;2023-04-03T11:37:26;99756.88;;;7.40;40.81
66762;BME280;53672;48.176;16.338;2023-04-03T11:42:34;99752.41;;;8.22;37.49
66762;BME280;53672;48.176;16.338;2023-04-03T11:47:54;99754.84;;;8.67;37.29
66762;BME280;53672;48.176;16.338;2023-04-03T11:53:10;99753.16;;;9.09;37.27
66762;BME280;53672;48.176;16.338;2023-04-03T11:58:27;99747.34;;;9.23;37.25
66762;BME280;53672;48.176;16.338;2023-04-03T12:08:48;99744.50;;;8.54;34.78
66762;BME280;53672;48.176;16.338;2023-04-03T12:14:12;99750.44;;;7.57;36.79
66762;BME280;53672;48.176;16.338;2023-04-03T12:19:33;99756.47;;;6.98;38.81
66762;BME280;53672;48.176;16.338;2023-04-03T12:24:35;99750.97;;;6.76;40.05
66762;BME280;53672;48.176;16.338;2023-04-03T12:29:43;99739.50;;;7.26;37.06
66762;BME280;53672;48.176;16.338;2023-04-03T12:34:56;99748.50;;;7.20;37.18
66762;BME280;53672;48.176;16.338;2023-04-03T12:40:09;99743.81;;;6.82;38.61
66762;BME280;53672;48.176;16.338;2023-04-03T12:45:17;99743.63;;;6.72;37.23
66762;BME280;53672;48.176;16.338;2023-04-03T12:50:24;99738.03;;;7.01;36.72
66762;BME280;53672;48.176;16.338;2023-04-03T12:55:27;99738.19;;;7.28;37.14
66762;BME280;53672;48.176;16.338;2023-04-03T13:00:32;99742.31;;;7.02;37.37
66762;BME280;53672;48.176;16.338;2023-04-03T13:05:33;99750.03;;;6.99;38.80
66762;BME280;53672;48.176;16.338;2023-04-03T13:10:43;99742.50;;;7.46;36.22
66762;BME280;53672;48.176;16.338;2023-04-03T13:15:47;99741.53;;;7.35;37.81
66762;BME280;53672;48.176;16.338;2023-04-03T13:20:48;99739.66;;;7.52;36.22
66762;BME280;53672;48.176;16.338;2023-04-03T13:25:49;99732.88;;;7.83;36.07
66762;BME280;53672;48.176;16.338;2023-04-03T13:31:02;99742.94;;;8.14;34.27
66762;BME280;53672;48.176;16.338;2023-04-03T13:36:06;99740.50;;;8.56;32.88
66762;BME280;53672;48.176;16.338;2023-04-03T13:41:23;99726.53;;;8.11;35.36
66762;BME280;53672;48.176;16.338;2023-04-03T13:46:27;99719.56;;;7.55;36.34
66762;BME280;53672;48.176;16.338;2023-04-03T13:51:29;99719.81;;;7.53;35.47
66762;BME280;53672;48.176;16.338;2023-04-03T13:56:31;99717.44;;;7.74;35.93
66762;BME280;53672;48.176;16.338;2023-04-03T14:01:41;99717.34;;;8.07;34.61
66762;BME280;53672;48.176;16.338;2023-04-03T14:06:42;99706.94;;;7.72;37.83
66762;BME280;53672;48.176;16.338;2023-04-03T14:11:43;99705.41;;;7.76;36.11
66762;BME280;53672;48.176;16.338;2023-04-03T14:16:47;99697.66;;;7.41;36.28
66762;BME280;53672;48.176;16.338;2023-04-03T14:21:47;99685.63;;;7.27;36.91
66762;BME280;53672;48.176;16.338;2023-04-03T14:26:49;99688.88;;;7.12;36.63
66762;BME280;53672;48.176;16.338;2023-04-03T14:31:52;99696.03;;;6.90;37.95
66762;BME280;53672;48.176;16.338;2023-04-03T14:36:52;99676.94;;;6.70;38.07
66762;BME280;53672;48.176;16.338;2023-04-03T14:41:53;99695.84;;;6.63;38.42
66762;BME280;53672;48.176;16.338;2023-04-03T14:46:54;99699.84;;;6.78;39.55
66762;BME280;53672;48.176;16.338;2023-04-03T14:51:55;99694.47;;;6.78;39.20
66762;BME280;53672;48.176;16.338;2023-04-03T14:56:58;99691.81;;;6.94;37.73
66762;BME280;53672;48.176;16.338;2023-04-03T15:02:05;99691.72;;;6.89;38.95
66762;BME280;53672;48.176;16.338;2023-04-03T15:07:12;99692.25;;;6.58;39.12
66762;BME280;53672;48.176;16.338;2023-04-03T15:12:12;99700.53;;;6.56;37.95
66762;BME280;53672;48.176;16.338;2023-04-03T15:17:19;99688.25;;;6.16;38.45
66762;BME280;53672;48.176;16.338;2023-04-03T15:22:20;99689.72;;;6.23;38.00
66762;BME280;53672;48.176;16.338;2023-04-03T15:27:20;99675.28;;;6.52;37.87
66762;BME280;53672;48.176;16.338;2023-04-03T15:32:22;99690.47;;;6.35;38.38
66762;BME280;53672;48.176;16.338;2023-04-03T15:37:23;99692.16;;;6.25;38.53
66762;BME280;53672;48.176;16.338;2023-04-03T15:42:23;99699.97;;;6.15;39.12
66762;BME280;53672;48.176;16.338;2023-04-03T15:47:26;99693.94;;;6.07;38.39
66762;BME280;53672;48.176;16.338;2023-04-03T15:52:27;99696.78;;;5.78;39.53
66762;BME280;53672;48.176;16.338;2023-04-03T15:57:27;99713.66;;;5.55;38.97
66762;BME280;53672;48.176;16.338;2023-04-03T16:02:29;99714.25;;;5.57;40.18
66762;BME280;53672;48.176;16.338;2023-04-03T16:07:30;99721.66;;;5.55;39.01
66762;BME280;53672;48.176;16.338;2023-04-03T16:12:30;99714.50;;;5.44;39.12
66762;BME280;53672;48.176;16.338;2023-04-03T16:17:32;99717.16;;;5.32;39.33
66762;BME280;53672;48.176;16.338;2023-04-03T16:22:33;99711.31;;;5.12;40.69
66762;BME280;53672;48.176;16.338;2023-04-03T16:27:34;99711.22;;;5.19;40.07
66762;BME280;53672;48.176;16.338;2023-04-03T16:32:38;99717.00;;;5.16;39.97
66762;BME280;53672;48.176;16.338;2023-04-03T16:37:39;99723.63;;;5.01;39.69
66762;BME280;53672;48.176;16.338;2023-04-03T16:42:39;99732.28;;;4.85;40.47
66762;BME280;53672;48.176;16.338;2023-04-03T16:47:42;99747.59;;;4.78;40.74
66762;BME280;53672;48.176;16.338;2023-04-03T16:52:42;99748.97;;;4.69;41.00
66762;BME280;53672;48.176;16.338;2023-04-03T16:57:45;99746.69;;;4.54;41.13
66762;BME280;53672;48.176;16.338;2023-04-03T17:02:47;99753.06;;;4.53;41.32
66762;BME280;53672;48.176;16.338;2023-04-03T17:07:47;99748.84;;;4.46;40.37
66762;BME280;53672;48.176;16.338;2023-04-03T17:12:48;99763.56;;;4.37;40.56
66762;BME280;53672;48.176;16.338;2023-04-03T17:17:51;99768.16;;;4.30;40.38
66762;BME280;53672;48.176;16.338;2023-04-03T17:22:53;99770.00;;;4.29;40.60
66762;BME280;53672;48.176;16.338;2023-04-03T17:27:54;99774.22;;;4.19;42.02
66762;BME280;53672;48.176;16.338;2023-04-03T17:32:56;99785.59;;;4.14;42.19
66762;BME280;53672;48.176;16.338;2023-04-03T17:37:56;99781.34;;;4.06;42.94
66762;BME280;53672;48.176;16.338;2023-04-03T17:42:57;99770.53;;;4.01;42.66
66762;BME280;53672;48.176;16.338;2023-04-03T17:47:59;99779.72;;;4.05;42.66
66762;BME280;53672;48.176;16.338;2023-04-03T17:53:00;99782.09;;;3.95;42.51
66762;BME280;53672;48.176;16.338;2023-04-03T17:58:00;99783.13;;;3.94;44.08
66762;BME280;53672;48.176;16.338;2023-04-03T18:03:03;99780.50;;;3.88;43.29
66762;BME280;53672;48.176;16.338;2023-04-03T18:08:04;99797.78;;;3.85;43.33
66762;BME280;53672;48.176;16.338;2023-04-03T18:13:08;99794.16;;;3.80;42.15
66762;BME280;53672;48.176;16.338;2023-04-03T18:18:11;99807.56;;;3.73;42.78
66762;BME280;53672;48.176;16.338;2023-04-03T18:23:12;99809.59;;;3.71;42.51
66762;BME280;53672;48.176;16.338;2023-04-03T18:28:13;99810.03;;;3.68;42.84
66762;BME280;53672;48.176;16.338;2023-04-03T18:33:16;99816.78;;;3.71;42.89
66762;BME280;53672;48.176;16.338;2023-04-03T18:38:16;99812.97;;;3.60;43.64
66762;BME280;53672;48.176;16.338;2023-04-03T18:43:19;99823.63;;;3.60;44.02
66762;BME280;53672;48.176;16.338;2023-04-03T18:48:22;99832.50;;;3.54;43.05
66762;BME280;53672;48.176;16.338;2023-04-03T18:53:23;99828.50;;;3.45;43.99
66762;BME280;53672;48.176;16.338;2023-04-03T18:58:24;99834.78;;;3.50;43.83
66762;BME280;53672;48.176;16.338;2023-04-03T19:03:28;99832.75;;;3.46;44.39
66762;BME280;53672;48.176;16.338;2023-04-03T19:08:31;99843.84;;;3.43;43.85
66762;BME280;53672;48.176;16.338;2023-04-03T19:13:33;99856.84;;;3.33;44.45
66762;BME280;53672;48.176;16.338;2023-04-03T19:18:36;99857.06;;;3.31;44.78
66762;BME280;53672;48.176;16.338;2023-04-03T19:23:37;99853.25;;;3.21;45.79
66762;BME280;53672;48.176;16.338;2023-04-03T19:28:39;99851.84;;;3.18;45.84
66762;BME280;53672;48.176;16.338;2023-04-03T19:33:41;99877.66;;;3.18;44.33
66762;BME280;53672;48.176;16.338;2023-04-03T19:38:43;99875.00;;;3.18;44.68
66762;BME280;53672;48.176;16.338;2023-04-03T19:43:46;99886.22;;;3.20;44.37
66762;BME280;53672;48.176;16.338;2023-04-03T19:48:51;99884.59;;;3.19;44.41
66762;BME280;53672;48.176;16.338;2023-04-03T19:53:52;99888.47;;;3.23;43.98
66762;BME280;53672;48.176;16.338;2023-04-03T19:58:52;99884.97;;;3.22;44.11
66762;BME280;53672;48.176;16.338;2023-04-03T20:03:55;99897.31;;;3.17;45.34
66762;BME280;53672;48.176;16.338;2023-04-03T20:08:58;99891.56;;;3.20;43.64
66762;BME280;53672;48.176;16.338;2023-04-03T20:14:00;99898.97;;;3.18;44.06
66762;BME280;53672;48.176;16.338;2023-04-03T20:19:02;99894.03;;;3.21;43.63
66762;BME280;53672;48.176;16.338;2023-04-03T20:24:05;99894.84;;;3.15;44.55
66762;BME280;53672;48.176;16.338;2023-04-03T20:29:05;99890.97;;;3.18;43.98
66762;BME280;53672;48.176;16.338;2023-04-03T20:34:07;99893.19;;;3.21;44.01
66762;BME280;53672;48.176;16.338;2023-04-03T20:39:08;99896.34;;;3.11;45.08
66762;BME280;53672;48.176;16.338;2023-04-03T20:44:09;99886.69;;;3.10;44.72
66762;BME280;53672;48.176;16.338;2023-04-03T20:49:11;99895.91;;;3.14;44.84
66762;BME280;53672;48.176;16.338;2023-04-03T20:54:11;99889.75;;;3.14;44.55
66762;BME280;53672;48.176;16.338;2023-04-03T20:59:12;99887.94;;;3.08;44.61
66762;BME280;53672;48.176;16.338;2023-04-03T21:04:17;99892.84;;;3.11;44.94
66762;BME280;53672;48.176;16.338;2023-04-03T21:20:35;99870.63;;;2.85;45.90
66762;BME280;53672;48.176;16.338;2023-04-03T21:25:36;99870.63;;;2.85;45.74
66762;BME280;53672;48.176;16.338;2023-04-03T21:30:36;99873.97;;;2.81;45.93
66762;BME280;53672;48.176;16.338;2023-04-03T21:35:38;99860.41;;;2.82;45.62
66762;BME280;53672;48.176;16.338;2023-04-03T21:40:38;99845.66;;;2.86;46.00
66762;BME280;53672;48.176;16.338;2023-04-03T21:45:39;99855.69;;;2.84;46.17
66762;BME280;53672;48.176;16.338;2023-04-03T21:50:41;99854.50;;;2.80;46.50
66762;BME280;53672;48.176;16.338;2023-04-03T21:55:41;99832.81;;;2.77;46.61
66762;BME280;53672;48.176;16.338;2023-04-03T22:00:51;99832.22;;;2.68;47.15
66762;BME280;53672;48.176;16.338;2023-04-03T22:05:56;99827.38;;;2.59;46.37
66762;BME280;53672;48.176;16.338;2023-04-03T22:11:01;99830.28;;;2.44;46.75
66762;BME280;53672;48.176;16.338;2023-04-03T22:16:02;99824.22;;;2.24;47.77
66762;BME280;53672;48.176;16.338;2023-04-03T22:21:04;99823.84;;;2.14;45.87
66762;BME280;53672;48.176;16.338;2023-04-03T22:26:07;99830.84;;;1.95;46.52
66762;BME280;53672;48.176;16.338;2023-04-03T22:31:08;99819.81;;;1.91;46.69
66762;BME280;53672;48.176;16.338;2023-04-03T22:36:10;99834.75;;;1.79;47.69
66762;BME280;53672;48.176;16.338;2023-04-03T22:41:11;99827.41;;;1.62;48.94
66762;BME280;53672;48.176;16.338;2023-04-03T22:46:12;99817.41;;;1.57;48.51
66762;BME280;53672;48.176;16.338;2023-04-03T22:51:14;99824.75;;;1.55;49.03
66762;BME280;53672;48.176;16.338;2023-04-03T22:56:14;99823.75;;;1.43;49.83
66762;BME280;53672;48.176;16.338;2023-04-03T23:01:15;99814.13;;;1.29;50.26
66762;BME280;53672;48.176;16.338;2023-04-03T23:06:17;99806.34;;;1.21;51.11
66762;BME280;53672;48.176;16.338;2023-04-03T23:11:17;99802.69;;;1.22;50.51
66762;BME280;53672;48.176;16.338;2023-04-03T23:16:18;99796.97;;;1.12;50.97
66762;BME280;53672;48.176;16.338;2023-04-03T23:21:19;99795.94;;;1.13;49.99
66762;BME280;53672;48.176;16.338;2023-04-03T23:26:20;99799.63;;;1.12;50.08
66762;BME280;53672;48.176;16.338;2023-04-03T23:31:20;99797.56;;;1.00;49.97
66762;BME280;53672;48.176;16.338;2023-04-03T23:36:22;99794.50;;;1.03;50.21
66762;BME280;53672;48.176;16.338;2023-04-03T23:41:23;99795.28;;;0.84;50.25
66762;BME280;53672;48.176;16.338;2023-04-03T23:46:23;99789.34;;;0.82;50.12
66762;BME280;53672;48.176;16.338;2023-04-03T23:51:25;99785.06;;;0.75;49.87
66762;BME280;53672;48.176;16.338;2023-04-03T23:56:26;99787.91;;;0.73;49.84
